CheckWX is a tool to help pilots better visualize weather data.  It is not intended as a substitute for an official pre-flight weather briefing.

10:38:57 UTC

KGRI METAR
Central Nebraska Regional Airport
Grand Island, Nebraska, USA
Current

46 mins ago

KGRI 140953Z AUTO 00000KT 10SM CLR 01/M02 A2998 RMK AO2 SLP162 T00061022
Observed
Oct-14 @ 09:53 UTC
Visibility
10 SM
Flight Rules
VFR
Cloud Levels
  • Clear skies
Temperature
C / 34°F
Dewpoint
-2°C / 28°F
Humidity
81%
Altimeter
29.98" Hg
Pressure
1015.22 hPa
Previous

2 hours ago

KGRI 140853Z AUTO 08003KT 10SM CLR 01/M02 A2997 RMK AO2 SLP158 T00061022 58010
Observed
Oct-14 @ 08:53 UTC
Wind
  • 080° at 3 KTS
Visibility
10 SM
Flight Rules
VFR
Cloud Levels
  • Clear skies
Temperature
C / 34°F
Dewpoint
-2°C / 28°F
Humidity
81%
Altimeter
29.97" Hg
Pressure
1014.92 hPa
Previous

3 hours ago

KGRI 140753Z AUTO 10004KT 10SM CLR 01/M02 A2999 RMK AO2 SLP164 T00111022
Observed
Oct-14 @ 07:53 UTC
Wind
  • 100° at 4 KTS
Visibility
10 SM
Flight Rules
VFR
Cloud Levels
  • Clear skies
Temperature
C / 34°F
Dewpoint
-2°C / 28°F
Humidity
81%
Altimeter
29.99" Hg
Pressure
1015.62 hPa